createdAt,value
2023-11-23T00:00:10.372Z,3.30
2023-11-23T00:02:39.347Z,3.28
2023-11-23T00:05:09.814Z,3.65
2023-11-23T00:07:39.054Z,2.25
2023-11-23T00:10:08.089Z,4.68
2023-11-23T00:12:36.801Z,6.43
2023-11-23T00:15:05.087Z,5.93
2023-11-23T00:17:33.137Z,4.28
2023-11-23T00:20:00.898Z,6.40
2023-11-23T00:22:29.973Z,2.80
2023-11-23T00:24:58.980Z,5.93
2023-11-23T00:27:28.745Z,6.43
2023-11-23T00:29:56.401Z,5.70
2023-11-23T00:32:23.876Z,4.10
2023-11-23T00:34:52.264Z,7.30
2023-11-23T00:37:20.113Z,13.45
2023-11-23T00:39:49.015Z,3.13
2023-11-23T00:42:16.553Z,2.90
2023-11-23T00:44:44.131Z,7.68
2023-11-23T00:47:12.957Z,3.97
2023-11-23T00:49:41.355Z,7.75
2023-11-23T00:52:08.939Z,9.52
2023-11-23T00:54:39.882Z,4.55
2023-11-23T00:57:11.167Z,6.90
2023-11-23T00:59:38.815Z,5.88
2023-11-23T01:02:06.909Z,3.78
2023-11-23T01:04:35.244Z,4.45
2023-11-23T01:07:02.881Z,5.78
2023-11-23T01:09:30.391Z,7.53
2023-11-23T01:11:59.734Z,4.15
2023-11-23T01:14:29.336Z,3.40
2023-11-23T01:16:56.840Z,13.25
2023-11-23T01:19:24.348Z,4.22
2023-11-23T01:21:51.820Z,3.67
2023-11-23T01:24:19.369Z,9.95
2023-11-23T01:26:46.944Z,6.18
2023-11-23T01:29:14.995Z,6.70
2023-11-23T01:31:43.817Z,2.70
2023-11-23T01:34:11.472Z,6.47
2023-11-23T01:36:39.284Z,5.95
2023-11-23T01:39:08.377Z,9.73
2023-11-23T01:41:36.210Z,7.03
2023-11-23T01:44:03.744Z,1.08
2023-11-23T01:46:32.718Z,6.13
2023-11-23T01:49:04.337Z,8.27
2023-11-23T01:51:34.339Z,4.38
2023-11-23T01:54:01.979Z,7.75
2023-11-23T01:56:31.815Z,4.57
2023-11-23T01:59:00.491Z,4.88
2023-11-23T02:01:28.082Z,5.15
2023-11-23T02:03:56.052Z,7.32
2023-11-23T02:06:24.926Z,3.03
2023-11-23T02:08:54.837Z,4.65
2023-11-23T02:11:29.980Z,0.77
2023-11-23T02:14:00.563Z,1.33
2023-11-23T02:16:28.407Z,2.65
2023-11-23T02:18:58.475Z,6.00
2023-11-23T02:21:28.576Z,1.30
2023-11-23T02:23:56.155Z,3.25
2023-11-23T02:26:25.194Z,8.00
2023-11-23T02:28:53.125Z,0.60
2023-11-23T02:31:20.756Z,2.08
2023-11-23T02:33:48.275Z,4.53
2023-11-23T02:36:15.858Z,0.22
2023-11-23T02:38:43.414Z,2.22
2023-11-23T02:41:10.926Z,1.52
2023-11-23T02:43:39.821Z,6.18
2023-11-23T02:46:07.446Z,4.22
2023-11-23T02:48:36.764Z,1.95
2023-11-23T02:51:04.538Z,9.07
2023-11-23T02:53:33.966Z,12.68
2023-11-23T02:56:01.525Z,12.43
2023-11-23T02:58:30.846Z,12.27
2023-11-23T03:00:59.740Z,1.27
2023-11-23T03:03:27.422Z,15.30
2023-11-23T03:05:55.730Z,5.80
2023-11-23T03:08:23.236Z,10.73
2023-11-23T03:10:50.692Z,4.68
2023-11-23T03:13:19.786Z,5.03
2023-11-23T03:15:47.253Z,18.83
2023-11-23T03:18:16.130Z,7.10
2023-11-23T03:20:43.931Z,5.20
2023-11-23T03:23:11.439Z,3.58
2023-11-23T03:25:39.589Z,6.53
2023-11-23T03:28:08.299Z,4.22
2023-11-23T03:30:36.830Z,8.43
2023-11-23T03:33:04.675Z,7.63
2023-11-23T03:35:33.508Z,6.85
2023-11-23T03:38:01.060Z,9.85
2023-11-23T03:40:28.534Z,9.45
2023-11-23T03:42:56.920Z,7.18
2023-11-23T03:45:26.924Z,7.45
2023-11-23T03:47:54.622Z,14.80
2023-11-23T03:50:22.527Z,7.38
2023-11-23T03:52:51.343Z,15.20
2023-11-23T03:55:18.853Z,4.28
2023-11-23T03:57:47.777Z,7.45
2023-11-23T04:00:16.830Z,17.00
2023-11-23T04:02:44.705Z,6.63
2023-11-23T04:05:13.265Z,4.55
2023-11-23T04:07:40.789Z,7.95
2023-11-23T04:10:11.572Z,9.13
2023-11-23T04:12:39.142Z,7.75
2023-11-23T04:15:07.644Z,14.93
2023-11-23T04:17:35.405Z,11.88
2023-11-23T04:20:03.032Z,0.85
2023-11-23T04:22:30.554Z,7.35
2023-11-23T04:24:58.203Z,13.40
2023-11-23T04:27:27.062Z,15.02
2023-11-23T04:29:55.776Z,6.85
2023-11-23T04:32:23.697Z,2.75
2023-11-23T04:34:51.179Z,4.75
2023-11-23T04:37:24.805Z,4.03
2023-11-23T04:39:53.067Z,7.32
2023-11-23T04:42:23.301Z,7.72
2023-11-23T04:44:52.168Z,3.72
2023-11-23T04:47:19.805Z,19.30
2023-11-23T04:49:47.264Z,10.63
2023-11-23T04:52:14.768Z,9.60
2023-11-23T04:54:42.257Z,14.18
2023-11-23T04:57:09.903Z,9.35
2023-11-23T04:59:37.989Z,4.55
2023-11-23T05:02:07.968Z,1.50
2023-11-23T05:04:35.485Z,7.93
2023-11-23T05:07:03.010Z,14.18
2023-11-23T05:09:30.527Z,11.07
2023-11-23T05:11:59.854Z,20.08
2023-11-23T05:14:27.416Z,5.65
2023-11-23T05:16:55.048Z,2.33
2023-11-23T05:19:35.664Z,4.15
2023-11-23T05:22:09.510Z,12.05
2023-11-23T05:24:37.098Z,5.63
2023-11-23T05:27:05.036Z,5.25
2023-11-23T05:29:32.521Z,8.80
2023-11-23T05:32:00.478Z,9.07
2023-11-23T05:34:29.387Z,3.00
2023-11-23T05:36:56.950Z,4.88
2023-11-23T05:39:24.529Z,12.70
2023-11-23T05:41:52.137Z,13.48
2023-11-23T05:44:22.343Z,13.20
2023-11-23T05:46:50.901Z,15.60
2023-11-23T05:49:22.237Z,12.98
2023-11-23T05:51:51.079Z,16.73
2023-11-23T05:54:19.046Z,7.75
2023-11-23T05:56:47.622Z,12.68
2023-11-23T05:59:15.390Z,4.88
2023-11-23T06:01:43.017Z,18.25
2023-11-23T06:04:12.696Z,15.80
2023-11-23T06:06:44.084Z,9.23
2023-11-23T06:09:13.913Z,8.02
2023-11-23T06:11:41.441Z,12.93
2023-11-23T06:14:08.936Z,7.18
2023-11-23T06:16:36.519Z,9.20
2023-11-23T06:19:06.538Z,11.52
2023-11-23T06:21:35.316Z,13.55
2023-11-23T06:24:04.894Z,0.20
2023-11-23T06:26:33.736Z,9.98
2023-11-23T06:29:01.833Z,4.82
2023-11-23T06:31:32.631Z,20.25
2023-11-23T06:34:01.026Z,16.88
2023-11-23T06:36:28.556Z,14.43
2023-11-23T06:38:56.648Z,18.75
2023-11-23T06:41:25.989Z,20.23
2023-11-23T06:43:54.976Z,13.57
2023-11-23T06:46:25.985Z,13.55
2023-11-23T06:48:58.010Z,14.18
2023-11-23T06:51:26.814Z,16.50
2023-11-23T06:53:54.307Z,13.50
2023-11-23T06:56:22.652Z,16.20
2023-11-23T06:58:50.225Z,14.25
2023-11-23T07:01:19.904Z,10.27
2023-11-23T07:03:51.887Z,18.63
2023-11-23T07:06:25.053Z,8.25
2023-11-23T07:08:54.905Z,11.13
2023-11-23T07:11:22.934Z,10.80
2023-11-23T07:13:50.923Z,13.05
2023-11-23T07:16:20.986Z,7.10
2023-11-23T07:18:48.609Z,8.82
2023-11-23T07:21:18.934Z,20.33
2023-11-23T07:23:48.433Z,9.43
2023-11-23T07:26:16.162Z,8.60
2023-11-23T07:28:43.641Z,16.23
2023-11-23T07:31:11.234Z,11.10
2023-11-23T07:33:40.258Z,5.53
2023-11-23T07:36:08.849Z,6.78
2023-11-23T07:38:36.376Z,17.77
2023-11-23T07:41:05.588Z,21.67
2023-11-23T07:43:35.273Z,11.88
2023-11-23T07:46:02.939Z,13.23
2023-11-23T07:48:32.220Z,15.90
2023-11-23T07:51:01.346Z,5.82
2023-11-23T07:53:31.612Z,12.45
2023-11-23T07:55:59.405Z,17.65
2023-11-23T07:58:27.108Z,7.07
2023-11-23T08:00:54.746Z,5.53
2023-11-23T08:03:22.525Z,12.88
2023-11-23T08:05:50.210Z,11.48
2023-11-23T08:08:19.273Z,9.73
2023-11-23T08:10:46.918Z,15.23
2023-11-23T08:13:15.959Z,15.82
2023-11-23T08:15:43.595Z,11.73
2023-11-23T08:18:12.494Z,9.57
2023-11-23T08:20:40.054Z,28.60
2023-11-23T08:23:13.533Z,9.50
2023-11-23T08:25:42.496Z,15.13
2023-11-23T08:28:10.019Z,18.20
2023-11-23T08:30:37.604Z,17.38
2023-11-23T08:33:05.168Z,13.32
2023-11-23T08:35:33.133Z,12.93
2023-11-23T08:38:01.901Z,17.63
2023-11-23T08:40:32.036Z,8.10
2023-11-23T08:43:00.988Z,7.95
2023-11-23T08:45:29.791Z,6.70
2023-11-23T08:47:57.569Z,14.18
2023-11-23T08:50:26.341Z,3.45
2023-11-23T08:52:58.643Z,10.18
2023-11-23T08:55:26.232Z,8.95
2023-11-23T08:57:53.741Z,9.63
2023-11-23T09:00:25.083Z,13.75
2023-11-23T09:02:55.546Z,13.60
2023-11-23T09:05:24.982Z,14.13
2023-11-23T09:07:52.653Z,16.13
2023-11-23T09:10:21.192Z,5.57
2023-11-23T09:12:48.987Z,19.05
2023-11-23T09:15:24.225Z,19.27
2023-11-23T09:17:53.401Z,17.10
2023-11-23T09:20:20.933Z,16.95
2023-11-23T09:22:48.457Z,16.92
2023-11-23T09:25:15.977Z,15.93
2023-11-23T09:27:43.526Z,12.90
2023-11-23T09:30:13.136Z,9.35
2023-11-23T09:32:40.760Z,17.42
2023-11-23T09:35:11.478Z,15.63
2023-11-23T09:37:40.917Z,6.25
2023-11-23T09:40:12.626Z,15.68
2023-11-23T09:42:41.200Z,9.55
2023-11-23T09:45:12.356Z,18.42
2023-11-23T09:47:40.608Z,16.85
2023-11-23T09:50:10.688Z,9.07
2023-11-23T09:52:41.257Z,7.28
2023-11-23T09:55:11.615Z,13.30
2023-11-23T09:57:39.284Z,12.27
2023-11-23T10:00:10.702Z,17.27
2023-11-23T10:02:38.774Z,13.75
2023-11-23T10:05:10.139Z,5.68
2023-11-23T10:07:37.952Z,14.55
2023-11-23T10:10:06.806Z,17.20
2023-11-23T10:12:35.070Z,12.50
2023-11-23T10:15:03.912Z,11.93
2023-11-23T10:17:31.728Z,9.95
2023-11-23T10:20:10.225Z,19.20
2023-11-23T10:22:40.266Z,18.38
2023-11-23T10:25:09.188Z,16.83
2023-11-23T10:27:36.911Z,15.77
2023-11-23T10:30:05.930Z,21.67
2023-11-23T10:32:35.530Z,18.77
2023-11-23T10:35:10.651Z,18.30
2023-11-23T10:37:41.684Z,21.70
2023-11-23T10:40:14.024Z,17.83
2023-11-23T10:42:44.283Z,20.98
2023-11-23T10:45:14.015Z,19.15
2023-11-23T10:47:44.452Z,21.83
2023-11-23T10:50:15.567Z,14.63
2023-11-23T10:52:47.012Z,13.85
2023-11-23T10:55:15.155Z,11.85
2023-11-23T10:57:45.963Z,19.35
2023-11-23T11:00:17.598Z,24.98
2023-11-23T11:02:46.961Z,19.75
2023-11-23T11:05:29.363Z,25.20
2023-11-23T11:08:02.812Z,17.55
2023-11-23T11:10:34.566Z,14.75
2023-11-23T11:13:07.890Z,19.02
2023-11-23T11:15:35.914Z,18.65
2023-11-23T11:18:07.824Z,20.90
2023-11-23T11:20:37.582Z,16.48
2023-11-23T11:23:07.088Z,15.02
2023-11-23T11:25:41.388Z,24.45
2023-11-23T11:28:15.440Z,20.08
2023-11-23T11:30:45.075Z,11.65
2023-11-23T11:33:15.635Z,18.10
2023-11-23T11:35:49.491Z,12.32
2023-11-23T11:38:18.369Z,19.63
2023-11-23T11:40:50.942Z,15.45
2023-11-23T11:43:20.882Z,16.58
2023-11-23T11:45:49.280Z,17.27
2023-11-23T11:48:16.917Z,16.92
2023-11-23T11:50:45.139Z,19.63
2023-11-23T11:53:12.758Z,21.48
2023-11-23T11:55:42.881Z,19.92
2023-11-23T11:58:10.426Z,21.48
2023-11-23T12:00:40.131Z,19.60
2023-11-23T12:03:07.768Z,13.93
2023-11-23T12:05:35.321Z,16.55
2023-11-23T12:08:06.782Z,18.92
2023-11-23T12:10:42.929Z,26.83
2023-11-23T12:13:16.211Z,15.82
2023-11-23T12:15:44.896Z,17.13
2023-11-23T12:18:14.376Z,20.15
2023-11-23T12:20:42.542Z,14.20
2023-11-23T12:23:10.088Z,18.45
2023-11-23T12:25:37.851Z,14.27
2023-11-23T12:28:14.896Z,23.55
2023-11-23T12:30:42.813Z,25.88
2023-11-23T12:33:10.379Z,19.27
2023-11-23T12:35:38.018Z,22.42
2023-11-23T12:38:05.596Z,14.10
2023-11-23T12:40:33.082Z,22.52
2023-11-23T12:43:00.617Z,13.90
2023-11-23T12:45:29.718Z,18.70
2023-11-23T12:47:57.711Z,15.68
2023-11-23T12:50:25.237Z,19.15
2023-11-23T12:52:53.019Z,23.50
2023-11-23T12:55:21.500Z,18.55
2023-11-23T12:57:49.768Z,18.67
2023-11-23T13:00:22.663Z,12.75
2023-11-23T13:02:51.540Z,18.83
2023-11-23T13:05:19.782Z,18.77
2023-11-23T13:07:47.336Z,16.73
2023-11-23T13:10:21.127Z,22.45
2023-11-23T13:12:51.516Z,10.90
2023-11-23T13:15:20.818Z,18.50
2023-11-23T13:17:50.686Z,18.70
2023-11-23T13:20:21.845Z,18.63
2023-11-23T13:22:49.397Z,19.30
2023-11-23T13:25:18.445Z,18.15
2023-11-23T13:27:46.002Z,25.35
2023-11-23T13:30:15.902Z,20.10
2023-11-23T13:32:44.258Z,14.23
2023-11-23T13:35:12.234Z,18.10
2023-11-23T13:37:41.106Z,18.98
2023-11-23T13:40:11.143Z,13.52
2023-11-23T13:42:38.732Z,9.90
2023-11-23T13:45:09.530Z,18.90
2023-11-23T13:47:37.831Z,7.70
2023-11-23T13:50:10.193Z,13.18
2023-11-23T13:52:38.056Z,14.48
2023-11-23T13:55:08.143Z,20.00
2023-11-23T13:57:35.999Z,12.45
2023-11-23T14:00:12.642Z,20.33
2023-11-23T14:02:41.227Z,14.80
2023-11-23T14:05:10.801Z,17.23
2023-11-23T14:07:39.290Z,11.85
2023-11-23T14:10:09.494Z,20.88
2023-11-23T14:12:37.437Z,14.15
2023-11-23T14:15:05.773Z,9.60
2023-11-23T14:17:33.665Z,16.85
2023-11-23T14:20:02.108Z,15.95
2023-11-23T14:22:30.657Z,6.85
2023-11-23T14:25:00.372Z,11.40
2023-11-23T14:27:30.106Z,17.60
2023-11-23T14:29:57.760Z,16.52
2023-11-23T14:32:25.293Z,17.80
2023-11-23T14:34:52.977Z,14.85
2023-11-23T14:37:21.898Z,18.55
2023-11-23T14:39:49.386Z,11.63
2023-11-23T14:42:17.994Z,13.13
2023-11-23T14:44:49.729Z,14.90
2023-11-23T14:47:20.910Z,21.40
2023-11-23T14:49:49.797Z,4.53
2023-11-23T14:52:20.757Z,22.05
2023-11-23T14:54:49.385Z,8.00
2023-11-23T14:57:17.169Z,13.00
2023-11-23T14:59:44.657Z,6.88
2023-11-23T15:02:14.242Z,7.15
2023-11-23T15:04:43.407Z,7.10
2023-11-23T15:07:10.887Z,15.93
2023-11-23T15:09:38.377Z,8.23
2023-11-23T15:12:07.506Z,10.38
2023-11-23T15:14:37.613Z,12.13
2023-11-23T15:17:05.658Z,6.07
2023-11-23T15:19:35.896Z,14.23
2023-11-23T15:22:06.656Z,7.80
2023-11-23T15:24:35.029Z,8.32
2023-11-23T15:27:03.559Z,12.43
2023-11-23T15:29:31.131Z,8.18
2023-11-23T15:32:03.409Z,9.48
2023-11-23T15:34:32.494Z,7.13
2023-11-23T15:37:01.968Z,9.82
2023-11-23T15:39:30.344Z,13.85
2023-11-23T15:41:58.626Z,10.25
2023-11-23T15:44:26.366Z,2.25
2023-11-23T15:46:54.352Z,6.30
2023-11-23T15:49:21.861Z,5.55
2023-11-23T15:51:49.336Z,4.20
2023-11-23T15:54:20.135Z,5.65
2023-11-23T15:56:47.644Z,6.47
2023-11-23T15:59:15.135Z,8.65
2023-11-23T16:01:42.672Z,4.38
2023-11-23T16:04:11.319Z,6.20
2023-11-23T16:06:40.080Z,7.03
2023-11-23T16:09:10.125Z,10.25
2023-11-23T16:11:40.126Z,9.63
2023-11-23T16:14:09.904Z,5.45
2023-11-23T16:16:39.263Z,6.30
2023-11-23T16:19:07.346Z,6.05
2023-11-23T16:21:35.925Z,13.98
2023-11-23T16:24:04.281Z,6.88
2023-11-23T16:26:32.203Z,11.02
2023-11-23T16:29:02.629Z,11.23
2023-11-23T16:31:31.863Z,6.18
2023-11-23T16:33:59.464Z,24.23
2023-11-23T16:36:33.721Z,6.03
2023-11-23T16:39:07.748Z,8.18
2023-11-23T16:41:35.317Z,12.07
2023-11-23T16:44:05.338Z,16.30
2023-11-23T16:46:33.278Z,5.38
2023-11-23T16:49:01.713Z,7.10
2023-11-23T16:51:30.121Z,4.32
2023-11-23T16:53:57.662Z,5.28
2023-11-23T16:56:25.197Z,7.07
2023-11-23T16:58:52.685Z,8.90
2023-11-23T17:01:21.590Z,4.78
2023-11-23T17:03:51.465Z,2.70
2023-11-23T17:06:19.273Z,6.15
2023-11-23T17:08:48.215Z,4.65
2023-11-23T17:11:17.421Z,3.20
2023-11-23T17:13:45.217Z,0.63
2023-11-23T17:16:12.923Z,7.63
2023-11-23T17:18:42.477Z,3.08
2023-11-23T17:21:10.547Z,4.10
2023-11-23T17:23:38.392Z,5.43
2023-11-23T17:26:10.000Z,7.60
2023-11-23T17:28:37.546Z,3.65
2023-11-23T17:31:06.360Z,4.38
2023-11-23T17:33:34.058Z,5.80
2023-11-23T17:36:03.510Z,3.60
2023-11-23T17:38:30.983Z,3.15
2023-11-23T17:40:58.529Z,6.63
2023-11-23T17:43:26.091Z,3.17
2023-11-23T17:45:53.983Z,2.42
2023-11-23T17:48:23.290Z,3.70
2023-11-23T17:50:52.003Z,2.50
2023-11-23T17:53:21.181Z,3.80
2023-11-23T17:55:48.649Z,5.93
2023-11-23T17:58:16.157Z,6.70
2023-11-23T18:00:43.740Z,3.08
2023-11-23T18:03:12.249Z,2.20
2023-11-23T18:05:43.565Z,5.03
2023-11-23T18:08:11.269Z,2.15
2023-11-23T18:10:40.261Z,4.97
2023-11-23T18:13:07.866Z,1.60
2023-11-23T18:15:35.898Z,4.75
2023-11-23T18:18:07.587Z,3.90
2023-11-23T18:20:39.684Z,3.40
2023-11-23T18:23:07.921Z,2.05
2023-11-23T18:25:37.084Z,9.23
2023-11-23T18:28:05.988Z,3.97
2023-11-23T18:30:34.797Z,2.45
2023-11-23T18:33:06.646Z,2.35
2023-11-23T18:35:36.517Z,2.47
2023-11-23T18:38:06.489Z,4.15
2023-11-23T18:40:34.462Z,2.50
2023-11-23T18:43:04.531Z,3.72
2023-11-23T18:45:33.998Z,3.30
2023-11-23T18:48:03.306Z,1.35
2023-11-23T18:50:32.223Z,1.15
2023-11-23T18:53:01.031Z,1.88
2023-11-23T18:55:28.768Z,1.50
2023-11-23T18:57:57.148Z,0.45
2023-11-23T19:00:25.209Z,2.78
2023-11-23T19:02:58.411Z,1.55
2023-11-23T19:05:28.042Z,0.73
2023-11-23T19:07:55.898Z,1.95
2023-11-23T19:10:25.462Z,1.88
2023-11-23T19:13:03.292Z,3.25
2023-11-23T19:15:33.770Z,2.50
2023-11-23T19:18:04.546Z,2.28
2023-11-23T19:20:35.093Z,3.08
2023-11-23T19:23:03.425Z,2.75
2023-11-23T19:25:34.213Z,1.65
2023-11-23T19:28:06.625Z,1.90
2023-11-23T19:30:34.880Z,3.13
2023-11-23T19:33:08.207Z,1.95
2023-11-23T19:35:36.544Z,1.20
2023-11-23T19:38:05.248Z,3.85
2023-11-23T19:40:33.837Z,1.80
2023-11-23T19:43:01.935Z,2.95
2023-11-23T19:45:30.256Z,1.63
2023-11-23T19:47:59.477Z,2.10
2023-11-23T19:50:29.641Z,2.58
2023-11-23T19:52:58.624Z,1.70
2023-11-23T19:55:26.172Z,1.45
2023-11-23T19:57:53.808Z,2.83
2023-11-23T20:00:21.484Z,2.50
2023-11-23T20:02:49.528Z,3.03
2023-11-23T20:05:18.023Z,1.38
2023-11-23T20:07:46.906Z,1.73
2023-11-23T20:10:15.078Z,2.03
2023-11-23T20:12:44.191Z,1.98
2023-11-23T20:15:12.141Z,1.67
2023-11-23T20:17:39.771Z,1.42
2023-11-23T20:20:10.889Z,1.55
2023-11-23T20:22:38.441Z,1.13
2023-11-23T20:25:09.163Z,0.68
2023-11-23T20:27:37.467Z,0.90
2023-11-23T20:30:09.429Z,0.20
2023-11-23T20:32:37.196Z,0.20
2023-11-23T20:35:07.564Z,0.60
2023-11-23T20:37:35.856Z,0.80
2023-11-23T20:40:03.458Z,0.80
2023-11-23T20:42:32.562Z,3.20
2023-11-23T20:45:00.275Z,0.40
2023-11-23T20:47:27.825Z,0.63
2023-11-23T20:49:55.305Z,0.70
2023-11-23T20:52:25.967Z,0.52
2023-11-23T20:54:55.225Z,0.90
2023-11-23T20:57:23.634Z,0.70
2023-11-23T20:59:54.190Z,1.70
2023-11-23T21:02:22.300Z,0.63
2023-11-23T21:04:50.621Z,2.42
2023-11-23T21:07:19.289Z,2.17
2023-11-23T21:09:49.322Z,0.52
2023-11-23T21:12:24.947Z,2.20
2023-11-23T21:14:56.533Z,5.88
2023-11-23T21:17:24.160Z,0.95
2023-11-23T21:19:52.013Z,0.47
2023-11-23T21:22:19.524Z,2.92
2023-11-23T21:24:47.027Z,2.17
2023-11-23T21:27:14.701Z,4.68
2023-11-23T21:29:42.268Z,0.60
2023-11-23T21:32:15.955Z,6.60
2023-11-23T21:34:43.638Z,0.65
2023-11-23T21:37:11.189Z,0.75
2023-11-23T21:39:38.709Z,0.25
2023-11-23T21:42:06.980Z,1.88
2023-11-23T21:44:36.264Z,2.25
2023-11-23T21:47:04.152Z,3.95
2023-11-23T21:49:33.005Z,3.08
2023-11-23T21:52:00.603Z,0.47
2023-11-23T21:54:30.159Z,0.80
2023-11-23T21:56:58.882Z,0.82
2023-11-23T21:59:26.692Z,7.63
2023-11-23T22:01:57.304Z,1.95
2023-11-23T22:04:24.909Z,1.85
2023-11-23T22:06:56.359Z,1.65
2023-11-23T22:09:25.864Z,2.72
2023-11-23T22:11:53.998Z,1.85
2023-11-23T22:14:21.771Z,5.65
2023-11-23T22:16:49.706Z,1.25
2023-11-23T22:19:18.793Z,8.27
2023-11-23T22:21:47.080Z,5.75
2023-11-23T22:24:17.575Z,2.28
2023-11-23T22:26:45.754Z,0.88
2023-11-23T22:29:15.086Z,1.45
2023-11-23T22:31:44.163Z,11.57
2023-11-23T22:34:12.977Z,4.20
2023-11-23T22:36:41.465Z,6.05
2023-11-23T22:39:10.242Z,5.38
2023-11-23T22:41:40.024Z,9.55
2023-11-23T22:44:10.460Z,8.27
2023-11-23T22:46:39.033Z,0.55
2023-11-23T22:49:07.856Z,5.78
2023-11-23T22:51:35.401Z,3.92
2023-11-23T22:54:02.955Z,2.00
2023-11-23T22:56:30.507Z,1.20
2023-11-23T22:59:00.413Z,5.57
2023-11-23T23:01:28.949Z,3.53
2023-11-23T23:03:56.670Z,0.10
2023-11-23T23:06:24.226Z,0.88
2023-11-23T23:08:53.624Z,1.20
2023-11-23T23:11:21.148Z,1.55
2023-11-23T23:13:48.768Z,9.82
2023-11-23T23:16:19.265Z,3.13
2023-11-23T23:18:47.954Z,4.90
2023-11-23T23:21:15.522Z,1.15
2023-11-23T23:23:43.018Z,0.30
2023-11-23T23:26:10.877Z,2.53
2023-11-23T23:28:38.403Z,2.88
2023-11-23T23:31:06.685Z,1.05
2023-11-23T23:33:36.264Z,4.70
2023-11-23T23:36:05.231Z,3.65
2023-11-23T23:38:33.551Z,16.88
2023-11-23T23:41:01.043Z,1.05
2023-11-23T23:43:28.513Z,3.00
2023-11-23T23:45:56.112Z,0.75
2023-11-23T23:48:23.768Z,0.75
2023-11-23T23:50:52.627Z,0.45
2023-11-23T23:53:20.141Z,2.90
2023-11-23T23:55:49.747Z,1.73
2023-11-23T23:58:17.443Z,6.65
